Time;durP1;ratioP1;P1;durP2;ratioP2;P2;SDS_P1;SDS_P2;PMS_P1;PMS_P2;Temp;Humidity;BMP_temperature;BMP_pressure;BME280_temperature;BME280_humidity;BME280_pressure;Samples;Min_cycle;Max_cycle;Signal;HPM_P1;HPM_P2
2022/07/09 00:01:55;;;;;;;6.93;6.22;;;;;;;16.82;57.82;100063.94;2618030;54;20586;-71
2022/07/09 00:04:25;;;;;;;7.88;6.25;;;;;;;16.71;57.67;100061.81;2618204;39;20426;-71
2022/07/09 00:06:58;;;;;;;7.65;6.30;;;;;;;16.65;57.89;100062.63;2618641;39;20434;-72
2022/07/09 00:09:28;;;;;;;11.15;6.82;;;;;;;16.62;57.88;100061.19;2617503;47;20038;-72
2022/07/09 00:11:57;;;;;;;9.27;6.82;;;;;;;16.50;58.77;100054.78;2617587;54;20030;-73
2022/07/09 00:14:29;;;;;;;6.82;6.13;;;;;;;16.51;58.56;100051.91;2617428;47;20022;-72
2022/07/09 00:16:59;;;;;;;7.75;6.55;;;;;;;16.48;58.64;100054.16;2618774;39;20415;-71
2022/07/09 00:19:28;;;;;;;6.38;5.70;;;;;;;16.52;58.73;100055.41;2618684;31;20456;-72
2022/07/09 00:22:00;;;;;;;9.20;6.47;;;;;;;16.51;58.42;100051.91;2616695;47;20067;-72
2022/07/09 00:24:30;;;;;;;6.82;6.13;;;;;;;16.47;58.92;100050.66;2617024;54;20034;-71
2022/07/09 00:27:00;;;;;;;7.70;6.00;;;;;;;16.47;58.67;100048.00;2616993;47;20127;-72
2022/07/09 00:29:29;;;;;;;7.68;6.15;;;;;;;16.52;58.51;100047.38;2616772;54;20061;-71
2022/07/09 00:31:59;;;;;;;8.50;6.43;;;;;;;16.42;58.88;100046.97;2617091;54;20122;-70
2022/07/09 00:34:29;;;;;;;7.85;6.88;;;;;;;16.39;58.95;100050.03;2617254;54;20086;-71
2022/07/09 00:37:01;;;;;;;10.18;6.32;;;;;;;16.44;59.26;100042.22;2616824;54;20204;-71
2022/07/09 00:39:31;;;;;;;9.10;5.72;;;;;;;16.52;59.03;100042.03;2616613;47;20034;-71
2022/07/09 00:42:07;;;;;;;8.57;6.70;;;;;;;16.47;58.49;100037.31;2618033;54;20126;-72
2022/07/09 00:44:38;;;;;;;9.05;6.45;;;;;;;16.37;58.76;100041.38;2621551;54;20038;-71
2022/07/09 00:47:09;;;;;;;8.13;6.78;;;;;;;16.25;59.12;100043.81;2616794;54;20027;-71
2022/07/09 00:49:41;;;;;;;8.88;6.57;;;;;;;16.12;59.93;100041.91;2616485;54;20146;-70
2022/07/09 00:52:17;;;;;;;10.40;6.55;;;;;;;16.07;59.79;100039.00;2616811;54;20065;-70
2022/07/09 00:54:47;;;;;;;7.30;6.20;;;;;;;16.02;59.91;100030.78;2618083;54;20057;-70
2022/07/09 00:57:19;;;;;;;11.98;7.15;;;;;;;16.00;59.84;100033.66;2617893;54;20043;-71
2022/07/09 00:59:49;;;;;;;7.57;6.05;;;;;;;15.90;60.04;100027.84;2618253;54;20045;-71
2022/07/09 01:02:21;;;;;;;7.00;5.45;;;;;;;15.85;60.55;100028.44;2618531;54;20034;-71
2022/07/09 01:04:50;;;;;;;7.47;6.53;;;;;;;15.91;60.46;100028.66;2618664;54;20057;-71
2022/07/09 01:07:22;;;;;;;7.00;6.10;;;;;;;15.98;60.34;100026.88;2618295;47;20078;-71
2022/07/09 01:09:52;;;;;;;10.13;6.57;;;;;;;15.90;60.62;100029.69;2618518;54;20019;-70
2022/07/09 01:12:22;;;;;;;8.07;6.68;;;;;;;15.83;60.62;100024.31;2618182;54;20035;-70
2022/07/09 01:14:51;;;;;;;7.55;6.57;;;;;;;15.69;60.92;100018.09;2618842;54;20570;-71
2022/07/09 01:17:21;;;;;;;9.00;6.78;;;;;;;15.70;61.02;100022.41;2618342;54;20038;-71
2022/07/09 01:19:51;;;;;;;7.53;5.90;;;;;;;15.70;61.06;100022.41;2618514;54;20530;-71
2022/07/09 01:22:23;;;;;;;9.95;6.53;;;;;;;15.73;60.68;100026.53;2618711;54;20034;-71
2022/07/09 01:24:56;;;;;;;8.35;6.88;;;;;;;15.72;61.30;100025.72;2618663;54;20050;-70
2022/07/09 01:27:26;;;;;;;7.65;6.18;;;;;;;15.66;61.40;100018.47;2621018;54;20034;-71
2022/07/09 01:29:55;;;;;;;7.25;5.60;;;;;;;15.71;61.50;100016.03;2627977;54;20046;-72
2022/07/09 01:32:25;;;;;;;6.28;5.68;;;;;;;15.73;61.15;100007.88;2627779;54;20032;-71
2022/07/09 01:34:54;;;;;;;10.82;6.13;;;;;;;15.73;61.04;100006.03;2627949;54;20026;-72
2022/07/09 01:37:27;;;;;;;8.60;6.28;;;;;;;15.70;61.39;100011.75;2627311;47;20042;-72
2022/07/09 01:39:56;;;;;;;7.28;6.20;;;;;;;15.58;61.15;100002.63;2627653;54;20039;-71
2022/07/09 01:42:26;;;;;;;9.43;6.85;;;;;;;15.56;61.71;100004.66;2627931;54;20022;-71
2022/07/09 01:44:55;;;;;;;10.90;7.05;;;;;;;15.55;61.50;100005.66;2627738;54;20023;-71
2022/07/09 01:47:24;;;;;;;7.45;6.50;;;;;;;15.45;62.23;100006.03;2623358;54;20042;-70
2022/07/09 01:49:54;;;;;;;7.43;6.38;;;;;;;15.47;62.20;100003.16;2619505;54;20045;-70
2022/07/09 01:52:26;;;;;;;7.85;6.63;;;;;;;15.42;62.18;100002.91;2619170;54;20169;-70
2022/07/09 01:54:56;;;;;;;12.05;7.03;;;;;;;15.23;62.29;99994.59;2618918;54;20033;-69
2022/07/09 01:57:25;;;;;;;7.10;6.40;;;;;;;15.16;63.00;100004.38;2619063;54;20056;-70
2022/07/09 01:59:55;;;;;;;7.35;6.45;;;;;;;15.16;63.10;100001.72;2618308;54;20057;-70
2022/07/09 02:02:25;;;;;;;8.48;6.30;;;;;;;15.23;62.91;100001.78;2618565;54;20042;-71
2022/07/09 02:04:54;;;;;;;7.80;6.40;;;;;;;15.03;62.91;99998.94;2618321;54;20034;-70
2022/07/09 02:07:27;;;;;;;8.43;7.20;;;;;;;14.99;63.28;99997.69;2618419;54;20023;-70
2022/07/09 02:09:56;;;;;;;7.45;6.65;;;;;;;14.91;63.35;100003.97;2617723;54;20031;-70
2022/07/09 02:12:26;;;;;;;7.18;6.32;;;;;;;14.88;63.47;99996.34;2618327;54;20026;-71
2022/07/09 02:14:55;;;;;;;8.32;6.38;;;;;;;14.92;63.72;99996.78;2618386;54;20030;-70
2022/07/09 02:17:25;;;;;;;8.35;6.65;;;;;;;14.88;63.88;99995.53;2618659;54;20065;-70
2022/07/09 02:19:54;;;;;;;7.75;5.88;;;;;;;14.90;63.78;99998.81;2618674;46;20495;-71
2022/07/09 02:22:27;;;;;;;7.03;6.32;;;;;;;14.83;63.91;100004.09;2618664;54;20027;-71
2022/07/09 02:24:56;;;;;;;8.90;6.25;;;;;;;14.85;63.38;99997.53;2618449;54;20555;-71
2022/07/09 02:27:26;;;;;;;10.73;5.93;;;;;;;14.59;63.86;99997.31;2618667;54;20170;-71
2022/07/09 02:29:55;;;;;;;8.20;6.68;;;;;;;14.55;64.64;100004.84;2618660;54;20026;-71
2022/07/09 02:32:25;;;;;;;7.55;6.32;;;;;;;14.57;64.80;99999.31;2622847;54;20615;-71
2022/07/09 02:34:54;;;;;;;8.52;6.45;;;;;;;14.59;64.49;100005.28;2624350;54;20082;-71
2022/07/09 02:37:26;;;;;;;7.70;6.22;;;;;;;14.61;64.04;100005.91;2623680;54;20034;-71
2022/07/09 02:39:56;;;;;;;8.52;6.80;;;;;;;14.58;64.18;100001.81;2622774;47;20034;-71
2022/07/09 02:42:25;;;;;;;7.35;6.45;;;;;;;14.62;64.29;100004.94;2622380;47;20026;-71
2022/07/09 02:44:55;;;;;;;6.53;5.22;;;;;;;14.67;64.18;99999.84;2623316;54;20023;-71
2022/07/09 02:47:25;;;;;;;6.35;5.80;;;;;;;14.72;63.94;99996.63;2619697;54;20081;-71
2022/07/09 02:49:54;;;;;;;6.50;5.43;;;;;;;14.77;63.67;100004.84;2618251;54;20027;-70
2022/07/09 02:52:26;;;;;;;6.93;6.03;;;;;;;14.74;63.64;99998.09;2618405;54;20030;-70
2022/07/09 02:54:56;;;;;;;6.22;5.60;;;;;;;14.68;64.00;100000.66;2618293;54;20139;-70
2022/07/09 02:57:25;;;;;;;8.90;5.57;;;;;;;14.63;63.97;100011.06;2618326;54;20026;-70
2022/07/09 02:59:55;;;;;;;7.72;5.70;;;;;;;14.52;64.07;100004.41;2618154;54;20091;-70
2022/07/09 03:02:24;;;;;;;6.55;5.85;;;;;;;14.49;64.64;100015.41;2618404;54;20069;-70
2022/07/09 03:04:54;;;;;;;6.60;5.90;;;;;;;14.48;64.45;100001.25;2618672;39;20480;-70
2022/07/09 03:07:23;;;;;;;6.78;6.05;;;;;;;14.30;64.83;100004.34;2618402;54;20035;-70
2022/07/09 03:09:56;;;;;;;6.25;5.65;;;;;;;14.32;65.06;99999.66;2620870;54;20050;-71
2022/07/09 03:12:25;;;;;;;8.38;6.15;;;;;;;14.33;65.25;99995.19;2622532;54;20037;-71
2022/07/09 03:14:55;;;;;;;6.18;5.57;;;;;;;14.32;65.12;99998.81;2617909;54;20053;-70
2022/07/09 03:17:26;;;;;;;7.28;6.10;;;;;;;14.36;65.36;99992.13;2618934;31;20423;-70
2022/07/09 03:19:55;;;;;;;6.25;5.65;;;;;;;14.41;65.40;99989.75;2617927;54;20652;-70
2022/07/09 03:22:25;;;;;;;7.80;5.57;;;;;;;14.45;64.69;99993.66;2617729;54;20039;-70
2022/07/09 03:24:57;;;;;;;6.75;5.75;;;;;;;14.46;64.89;99997.97;2617934;54;20135;-71
2022/07/09 03:27:27;;;;;;;7.05;5.80;;;;;;;14.48;64.59;99993.28;2618171;54;20565;-70
2022/07/09 03:29:56;;;;;;;6.75;5.28;;;;;;;14.45;65.22;99988.34;2617896;54;20047;-71
2022/07/09 03:32:26;;;;;;;6.50;5.70;;;;;;;14.43;64.93;99992.19;2618861;39;20427;-70
2022/07/09 03:34:56;;;;;;;7.85;5.78;;;;;;;14.38;65.20;99993.59;2618175;54;20038;-70
2022/07/09 03:37:26;;;;;;;7.43;5.25;;;;;;;14.35;65.38;99993.97;2618247;54;20034;-70
2022/07/09 03:39:58;;;;;;;8.05;6.00;;;;;;;14.36;64.85;99995.59;2618220;54;20574;-71
2022/07/09 03:42:27;;;;;;;6.00;5.50;;;;;;;14.29;65.04;99993.91;2621684;54;20030;-76
2022/07/09 03:44:57;;;;;;;7.50;6.05;;;;;;;14.23;65.61;99997.28;2627755;54;20625;-72
2022/07/09 03:47:26;;;;;;;6.20;5.60;;;;;;;14.23;65.38;99998.13;2628061;54;20534;-71
2022/07/09 03:49:56;;;;;;;7.05;5.63;;;;;;;14.18;65.97;99991.72;2622728;54;20039;-70
2022/07/09 03:52:25;;;;;;;5.55;5.05;;;;;;;14.18;66.01;99987.22;2618102;54;20030;-71
2022/07/09 03:54:57;;;;;;;7.20;5.75;;;;;;;14.23;65.58;100000.78;2618437;39;20404;-70
2022/07/09 03:57:27;;;;;;;7.47;5.75;;;;;;;14.23;65.91;99998.13;2618104;54;20023;-70
2022/07/09 03:59:56;;;;;;;7.65;5.75;;;;;;;14.21;65.97;100007.31;2617932;54;20674;-70
2022/07/09 04:02:26;;;;;;;6.10;5.50;;;;;;;14.29;65.96;99996.56;2591864;39;20430;-70
2022/07/09 04:04:56;;;;;;;7.75;5.65;;;;;;;14.31;65.62;100005.16;2617725;54;20018;-71
2022/07/09 07:57:00;;;;;;;7.30;3.60;;;;;;;21.70;49.65;99940.31;2576530;46;20034;-64
2022/07/09 07:59:29;;;;;;;8.90;3.60;;;;;;;21.85;49.74;99939.00;2616990;54;20034;-66
2022/07/09 08:01:59;;;;;;;5.78;3.33;;;;;;;21.82;49.78;99931.41;2619234;31;20491;-67
2022/07/09 08:04:29;;;;;;;4.50;3.15;;;;;;;21.90;49.20;99931.03;2618582;54;20039;-65
2022/07/09 08:06:58;;;;;;;6.40;4.15;;;;;;;22.09;48.97;99928.97;2618384;54;20553;-67
2022/07/09 08:09:28;;;;;;;15.10;11.25;;;;;;;22.15;48.71;99934.22;2616878;54;20647;-71
2022/07/09 08:12:00;;;;;;;7.28;4.18;;;;;;;22.25;48.19;99926.34;2617738;47;20058;-72
2022/07/09 08:14:30;;;;;;;4.50;3.30;;;;;;;22.43;48.25;99927.19;2618289;54;20034;-71
2022/07/09 08:16:59;;;;;;;5.15;3.53;;;;;;;22.61;47.35;99929.63;2617876;54;20034;-71
2022/07/09 08:19:29;;;;;;;3.95;3.38;;;;;;;22.66;47.43;99920.84;2618106;54;20043;-73
2022/07/09 08:22:01;;;;;;;4.43;3.45;;;;;;;22.78;46.74;99923.44;2619040;54;20034;-71
2022/07/09 08:24:31;;;;;;;7.13;4.18;;;;;;;22.78;46.96;99918.03;2618292;54;20034;-70
2022/07/09 08:27:03;;;;;;;7.30;4.18;;;;;;;22.93;45.78;99918.31;2618149;54;20027;-71
2022/07/09 08:29:33;;;;;;;6.43;3.80;;;;;;;23.01;44.81;99915.22;2617796;54;20023;-70
2022/07/09 08:32:02;;;;;;;5.22;3.65;;;;;;;23.16;44.56;99914.63;2618074;54;20061;-71
2022/07/09 08:34:32;;;;;;;4.82;2.70;;;;;;;23.19;44.18;99909.56;2617859;39;20583;-70
2022/07/09 08:37:02;;;;;;;6.22;2.70;;;;;;;23.53;43.45;99900.53;2617601;54;20038;-71
2022/07/09 08:39:31;;;;;;;6.45;3.50;;;;;;;23.64;43.38;99899.59;2617475;47;20030;-71
2022/07/09 08:42:06;;;;;;;5.55;2.63;;;;;;;23.71;43.04;99895.66;2618339;54;20050;-71
2022/07/09 08:44:42;;;;;;;5.45;2.35;;;;;;;23.82;42.29;99895.78;2618390;54;20027;-71
2022/07/09 08:47:13;;;;;;;3.80;1.80;;;;;;;23.82;42.10;99890.38;2618062;54;20027;-71
2022/07/09 08:49:43;;;;;;;2.90;1.98;;;;;;;23.85;42.84;99895.28;2617189;54;20030;-70
2022/07/09 08:52:13;;;;;;;3.58;2.08;;;;;;;23.83;42.03;99902.81;2617838;54;20042;-70
2022/07/09 08:54:44;;;;;;;4.05;2.35;;;;;;;23.78;42.13;99897.38;2617900;54;20041;-69
2022/07/09 08:57:16;;;;;;;3.97;1.92;;;;;;;23.80;42.00;99890.66;2617942;54;20027;-70
2022/07/09 08:59:46;;;;;;;4.63;2.10;;;;;;;23.90;41.90;99892.63;2617736;54;20122;-72
2022/07/09 09:02:19;;;;;;;5.10;1.98;;;;;;;23.97;41.17;99887.88;2618021;54;20066;-72
2022/07/09 09:04:49;;;;;;;5.25;2.40;;;;;;;23.91;41.47;99895.06;2618074;54;20545;-71
2022/07/09 09:07:21;;;;;;;3.27;1.90;;;;;;;24.01;41.76;99888.16;2617937;54;20549;-70
2022/07/09 09:09:51;;;;;;;4.38;1.88;;;;;;;23.96;41.99;99884.34;2617408;54;20038;-69
2022/07/09 09:12:30;;;;;;;3.30;2.50;;;;;;;23.77;41.45;99885.75;2620069;54;20038;-70
2022/07/09 09:15:00;;;;;;;5.45;2.45;;;;;;;23.77;41.60;99880.34;2620324;54;20529;-69
2022/07/09 09:17:29;;;;;;;3.25;1.88;;;;;;;23.75;42.39;99882.47;2619695;47;20035;-71
2022/07/09 09:20:00;;;;;;;5.13;2.20;;;;;;;23.89;41.90;99882.91;2619772;54;20577;-70
2022/07/09 09:22:30;;;;;;;6.22;4.05;;;;;;;24.02;41.77;99874.41;2621078;47;20100;-71
2022/07/09 09:25:00;;;;;;;4.45;2.20;;;;;;;24.18;41.07;99864.56;2620892;54;20031;-71
2022/07/09 09:27:35;;;;;;;3.45;2.30;;;;;;;24.22;41.50;99873.78;2620453;54;20038;-69
2022/07/09 09:30:05;;;;;;;4.85;1.90;;;;;;;24.26;41.07;99858.69;2619191;39;20523;-70
2022/07/09 09:32:35;;;;;;;3.05;1.85;;;;;;;24.48;40.73;99858.63;2618953;54;20026;-71
2022/07/09 09:35:05;;;;;;;3.15;1.88;;;;;;;24.61;40.55;99865.47;2619054;54;20026;-69
2022/07/09 09:37:35;;;;;;;2.58;1.90;;;;;;;24.61;39.99;99866.28;2619066;54;20026;-70
2022/07/09 09:40:11;;;;;;;2.65;1.80;;;;;;;24.58;39.35;99863.31;2618087;54;20038;-69
2022/07/09 09:42:44;;;;;;;3.50;1.73;;;;;;;24.60;39.74;99863.84;2618922;54;20038;-69
2022/07/09 09:45:15;;;;;;;3.00;2.00;;;;;;;24.54;39.67;99859.50;2618843;54;20043;-69
2022/07/09 09:47:48;;;;;;;2.22;1.80;;;;;;;24.53;39.96;99863.25;2618775;54;20053;-69
2022/07/09 09:50:20;;;;;;;4.07;2.10;;;;;;;24.70;39.48;99856.66;2618129;54;20042;-71
2022/07/09 09:52:51;;;;;;;4.18;2.03;;;;;;;24.93;39.25;99862.72;2618086;54;20041;-71
2022/07/09 09:55:22;;;;;;;4.07;2.17;;;;;;;25.11;38.93;99854.22;2618705;54;20027;-70
2022/07/09 09:57:56;;;;;;;5.18;1.90;;;;;;;25.31;39.07;99850.81;2618524;54;20163;-71
2022/07/09 10:00:25;;;;;;;2.95;1.83;;;;;;;25.46;38.70;99850.03;2617787;54;20019;-70
2022/07/09 10:02:55;;;;;;;3.88;2.17;;;;;;;25.48;38.44;99847.88;2618814;54;20034;-69
2022/07/09 10:05:25;;;;;;;5.85;2.63;;;;;;;25.60;38.12;99844.94;2618880;54;20034;-70
2022/07/09 10:07:54;;;;;;;2.83;2.13;;;;;;;25.53;37.78;99842.47;2621099;54;20034;-70
2022/07/09 10:10:24;;;;;;;3.72;2.17;;;;;;;25.29;38.20;99838.59;2621241;54;20549;-69
2022/07/09 10:12:56;;;;;;;3.03;1.95;;;;;;;25.27;38.59;99847.00;2619360;54;20030;-69
2022/07/09 10:15:28;;;;;;;3.43;2.00;;;;;;;25.16;38.65;99856.13;2619778;54;20019;-67
2022/07/09 10:17:58;;;;;;;5.57;2.13;;;;;;;24.94;38.91;99848.97;2625195;54;20030;-68
2022/07/09 10:20:36;;;;;;;4.65;1.95;;;;;;;24.85;39.21;99847.00;2626715;54;20074;-69
2022/07/09 10:23:06;;;;;;;1.83;1.70;;;;;;;24.80;39.48;99853.19;2626752;54;20038;-70
2022/07/09 10:25:47;;;;;;;7.38;1.88;;;;;;;24.87;39.39;99853.78;2625531;54;20026;-69
2022/07/09 10:28:20;;;;;;;3.20;2.00;;;;;;;25.03;39.28;99846.56;2625376;54;20038;-69
2022/07/09 10:30:50;;;;;;;;;;;;;;;25.18;39.25;99841.25;2625234;54;20019;-69
2022/07/09 10:33:25;;;;;;;3.80;2.60;;;;;;;25.37;38.98;99838.09;2627806;39;20307;-69
2022/07/09 10:35:55;;;;;;;7.68;2.30;;;;;;;25.30;38.74;99837.50;2625477;54;20026;-69
2022/07/09 10:38:38;;;;;;;3.05;2.08;;;;;;;25.23;38.87;99826.94;2625619;54;20038;-69
2022/07/09 10:41:08;;;;;;;6.10;2.08;;;;;;;25.04;38.92;99818.44;2626484;54;20581;-69
2022/07/09 10:43:46;;;;;;;5.53;1.83;;;;;;;25.03;39.20;99821.41;2626147;54;20042;-69
2022/07/09 10:46:17;;;;;;;6.90;2.08;;;;;;;25.01;38.63;99816.25;2626583;54;20027;-69
2022/07/09 10:48:48;;;;;;;2.80;1.55;;;;;;;24.88;39.19;99819.44;2625627;47;20023;-69
2022/07/09 10:51:22;;;;;;;3.45;1.77;;;;;;;25.02;39.07;99817.06;2624850;54;20030;-69
2022/07/09 10:53:52;;;;;;;3.85;2.70;;;;;;;25.22;38.93;99817.19;2620441;47;20018;-69
2022/07/09 10:56:22;;;;;;;4.45;2.15;;;;;;;25.28;38.65;99820.75;2625400;39;20387;-69
2022/07/09 10:58:54;;;;;;;6.30;2.08;;;;;;;25.38;38.47;99812.66;2626570;54;20026;-70
2022/07/09 11:01:26;;;;;;;4.00;2.47;;;;;;;25.40;38.57;99808.59;2626838;54;20019;-69
2022/07/09 11:03:56;;;;;;;3.27;1.63;;;;;;;25.47;38.10;99808.34;2626677;54;20026;-70
2022/07/09 11:06:25;;;;;;;3.15;2.20;;;;;;;25.59;38.01;99794.56;2626602;54;20126;-70
2022/07/09 11:08:55;;;;;;;2.50;1.70;;;;;;;25.63;37.91;99799.19;2626371;54;20042;-69
2022/07/09 11:11:25;;;;;;;4.97;1.50;;;;;;;25.79;37.36;99785.69;2626104;54;20042;-68
2022/07/09 11:13:59;;;;;;;4.70;1.60;;;;;;;26.04;37.11;99790.31;2625036;54;20034;-69
2022/07/09 11:16:29;;;;;;;4.47;1.60;;;;;;;26.17;36.50;99782.50;2623999;54;20034;-69
2022/07/09 11:18:59;;;;;;;3.13;2.00;;;;;;;26.22;36.56;99786.28;2624864;47;20098;-72
2022/07/09 11:21:29;;;;;;;3.20;1.75;;;;;;;26.22;36.33;99780.84;2625704;54;20038;-70
2022/07/09 11:23:59;;;;;;;2.75;1.63;;;;;;;26.28;35.64;99772.44;2624682;54;20038;-69
2022/07/09 11:26:30;;;;;;;2.40;1.70;;;;;;;26.47;35.96;99780.84;2622192;54;20042;-69
2022/07/09 11:29:02;;;;;;;3.08;1.83;;;;;;;26.56;36.09;99778.41;2622996;54;20029;-70
2022/07/09 11:31:32;;;;;;;4.68;1.88;;;;;;;26.61;35.48;99771.06;2620303;54;20030;-72
2022/07/09 11:34:14;;;;;;;2.70;1.35;;;;;;;26.58;35.15;99776.25;2620117;54;20026;-70
2022/07/09 11:36:45;;;;;;;2.75;1.45;;;;;;;26.54;35.01;99773.25;2620678;54;20041;-70
2022/07/09 11:39:25;;;;;;;3.65;1.88;;;;;;;26.49;34.73;99767.81;2618354;47;20038;-70
2022/07/09 11:41:56;;;;;;;5.70;1.77;;;;;;;26.30;34.84;99761.34;2618758;54;20046;-70
2022/07/09 11:44:29;;;;;;;4.97;2.17;;;;;;;26.39;35.16;99754.28;2618324;54;20034;-70
2022/07/09 11:47:07;;;;;;;4.88;3.95;;;;;;;26.56;35.05;99749.38;2618675;47;20034;-69
2022/07/09 11:49:39;;;;;;;4.40;3.00;;;;;;;26.76;34.60;99739.56;2617459;47;20029;-70
2022/07/09 11:52:20;;;;;;;4.30;1.17;;;;;;;26.81;34.13;99745.78;2618206;54;20098;-69
2022/07/09 11:54:58;;;;;;;2.20;1.73;;;;;;;26.84;34.47;99742.53;2618238;54;20035;-70
2022/07/09 11:57:28;;;;;;;5.10;2.30;;;;;;;26.90;34.42;99736.00;2619731;54;20030;-69
2022/07/09 12:00:01;;;;;;;2.63;1.85;;;;;;;26.97;34.26;99738.41;2620465;54;20037;-71
2022/07/09 12:02:40;;;;;;;4.03;1.65;;;;;;;27.19;34.08;99734.50;2622418;54;20529;-71
2022/07/09 12:05:11;;;;;;;5.03;1.88;;;;;;;27.39;33.47;99737.13;2623355;54;20045;-72
2022/07/09 12:07:41;;;;;;;1.83;1.40;;;;;;;27.41;33.01;99737.66;2625869;39;20555;-71
2022/07/09 12:10:12;;;;;;;9.85;8.57;;;;;;;27.45;32.71;99724.34;2622077;47;20086;-72
2022/07/09 12:12:42;;;;;;;3.83;1.80;;;;;;;27.46;32.62;99732.19;2624323;54;20045;-72
2022/07/09 12:15:16;;;;;;;2.72;1.60;;;;;;;27.46;32.52;99720.53;2626339;54;20042;-70
2022/07/09 12:17:47;;;;;;;3.50;2.17;;;;;;;27.71;32.96;99711.38;2626256;54;20094;-70
2022/07/09 12:20:17;;;;;;;1.80;1.30;;;;;;;28.07;31.46;99696.41;2623064;47;20043;-71
2022/07/09 12:22:47;;;;;;;11.60;5.88;;;;;;;28.30;31.31;99696.75;2624603;54;20137;-70
2022/07/09 12:25:17;;;;;;;2.25;1.52;;;;;;;28.47;30.37;99688.16;2623625;54;20138;-70
2022/07/09 12:27:48;;;;;;;1.75;1.52;;;;;;;28.72;30.02;99685.13;2621991;47;20074;-70
2022/07/09 12:30:20;;;;;;;2.95;1.30;;;;;;;28.47;30.13;99685.44;2621671;47;20015;-71
2022/07/09 12:32:50;;;;;;;2.50;2.28;;;;;;;28.45;29.85;99674.84;2623747;54;20037;-72
2022/07/09 12:35:20;;;;;;;6.13;1.40;;;;;;;28.26;29.77;99674.78;2624796;54;20026;-70
2022/07/09 12:37:49;;;;;;;2.95;1.15;;;;;;;27.91;30.67;99667.78;2625062;54;20030;-71
2022/07/09 12:40:19;;;;;;;2.40;1.63;;;;;;;27.69;30.90;99678.28;2623381;54;20039;-70
2022/07/09 12:42:48;;;;;;;2.08;1.67;;;;;;;27.36;30.46;99681.50;2621031;54;20034;-71
2022/07/09 12:45:21;;;;;;;8.00;7.20;;;;;;;27.29;30.63;99680.19;2622647;39;20437;-71
2022/07/09 12:47:52;;;;;;;2.65;2.15;;;;;;;27.26;30.57;99681.56;2623839;54;20033;-71
2022/07/09 12:50:21;;;;;;;3.08;2.15;;;;;;;27.40;30.38;99679.03;2620755;51;20031;-70
2022/07/09 12:52:51;;;;;;;1.30;1.20;;;;;;;27.63;29.93;99672.06;2620267;47;20062;-71
2022/07/09 12:55:21;;;;;;;3.03;1.75;;;;;;;27.82;30.18;99678.44;2620352;39;20413;-69
2022/07/09 12:57:50;;;;;;;1.98;1.60;;;;;;;28.08;29.83;99672.75;2619597;46;20533;-72
2022/07/09 13:00:22;;;;;;;1.75;1.52;;;;;;;28.38;29.53;99660.81;2620381;39;20408;-72
2022/07/09 13:02:52;;;;;;;1.42;1.00;;;;;;;28.75;29.12;99670.97;2620738;54;20035;-71
2022/07/09 13:05:22;;;;;;;1.92;1.00;;;;;;;28.89;28.60;99660.16;2620410;54;20034;-71
2022/07/09 13:07:51;;;;;;;1.67;1.20;;;;;;;28.73;28.15;99664.19;2619902;54;20030;-71
2022/07/09 13:10:23;;;;;;;1.00;0.90;;;;;;;28.56;28.22;99653.78;2619006;54;20037;-70
2022/07/09 13:12:52;;;;;;;2.08;0.98;;;;;;;28.07;28.62;99654.84;2618820;39;20436;-70
2022/07/09 13:15:24;;;;;;;3.25;1.15;;;;;;;27.84;28.74;99650.97;2619012;54;20039;-71
2022/07/09 13:17:54;;;;;;;1.52;1.20;;;;;;;27.64;29.00;99649.25;2619027;54;20034;-69
2022/07/09 13:20:24;;;;;;;1.13;0.95;;;;;;;27.65;29.40;99646.25;2618726;46;20057;-72
2022/07/09 13:22:54;;;;;;;0.85;0.82;;;;;;;27.99;29.07;99644.59;2619346;39;20477;-70
2022/07/09 13:25:23;;;;;;;1.77;0.90;;;;;;;28.10;29.10;99638.78;2618725;54;20027;-70
2022/07/09 13:27:54;;;;;;;1.02;1.02;;;;;;;28.16;29.55;99639.53;2618822;54;20034;-70
2022/07/09 13:30:26;;;;;;;0.93;0.82;;;;;;;28.14;29.17;99639.03;2618791;54;20054;-69
2022/07/09 13:32:56;;;;;;;0.88;0.88;;;;;;;28.10;28.90;99629.81;2619190;54;20030;-71
2022/07/09 13:35:25;;;;;;;1.58;1.13;;;;;;;28.19;29.46;99619.13;2618263;54;20031;-69
2022/07/09 13:37:55;;;;;;;1.27;0.90;;;;;;;28.40;29.01;99620.53;2619194;39;20438;-69
2022/07/09 13:40:24;;;;;;;1.85;0.80;;;;;;;28.32;28.73;99621.13;2618596;54;20038;-71
2022/07/09 13:42:54;;;;;;;1.10;1.00;;;;;;;28.23;29.15;99612.81;2619194;54;20033;-69
2022/07/09 13:45:27;;;;;;;1.48;1.00;;;;;;;28.36;28.83;99620.28;2619844;54;20034;-69
2022/07/09 13:47:57;;;;;;;2.45;1.00;;;;;;;28.25;29.26;99613.34;2619523;54;20587;-71
2022/07/09 13:50:26;;;;;;;4.72;1.23;;;;;;;28.26;28.79;99620.41;2619190;54;20026;-69
2022/07/09 13:52:56;;;;;;;2.00;1.33;;;;;;;28.22;28.70;99627.50;2620073;54;20027;-70
2022/07/09 13:55:26;;;;;;;1.85;1.08;;;;;;;28.12;28.35;99616.72;2619885;54;20038;-69
2022/07/09 13:57:55;;;;;;;1.08;1.05;;;;;;;27.96;28.47;99607.13;2621709;39;20476;-70
2022/07/09 14:00:27;;;;;;;2.75;1.08;;;;;;;27.91;28.60;99613.44;2620646;54;20030;-69
2022/07/09 14:02:57;;;;;;;1.25;1.00;;;;;;;27.90;28.86;99596.31;2621560;39;20442;-69
2022/07/09 14:05:27;;;;;;;2.33;2.13;;;;;;;27.98;28.90;99600.31;2620129;54;20031;-69
2022/07/09 14:07:58;;;;;;;2.63;1.30;;;;;;;28.07;28.57;99605.94;2617971;54;20542;-69
2022/07/09 14:10:28;;;;;;;1.23;1.08;;;;;;;28.05;28.60;99605.41;2617285;54;20039;-65
2022/07/09 14:12:58;;;;;;;3.45;1.60;;;;;;;27.97;28.87;99601.41;2622033;54;20038;-64
2022/07/09 14:15:31;;;;;;;1.38;1.20;;;;;;;27.80;29.11;99606.47;2621411;54;20026;-66
2022/07/09 14:18:00;;;;;;;1.38;1.27;;;;;;;27.72;29.33;99599.75;2618132;46;20041;-64
2022/07/09 14:20:30;;;;;;;1.30;1.20;;;;;;;27.73;29.26;99597.84;2618004;46;20058;-64
2022/07/09 14:22:59;;;;;;;1.75;0.93;;;;;;;27.70;29.05;99598.41;2618788;54;20562;-65
2022/07/09 14:25:29;;;;;;;1.92;0.90;;;;;;;27.82;28.84;99586.06;2618787;47;20018;-64
2022/07/09 14:27:59;;;;;;;1.55;1.10;;;;;;;27.98;28.59;99594.88;2618936;54;20022;-65
2022/07/09 14:30:32;;;;;;;0.95;0.90;;;;;;;28.00;28.77;99586.44;2618501;54;20049;-65
2022/07/09 14:33:02;;;;;;;2.50;1.10;;;;;;;27.97;28.84;99589.75;2617945;54;20030;-65
2022/07/09 14:35:32;;;;;;;1.73;1.00;;;;;;;27.96;28.66;99593.53;2618810;54;20027;-67
2022/07/09 14:38:01;;;;;;;2.17;1.10;;;;;;;27.96;28.73;99585.38;2618688;54;20033;-67
2022/07/09 14:40:31;;;;;;;1.35;0.98;;;;;;;27.97;29.11;99585.13;2618898;54;20030;-64
2022/07/09 14:43:01;;;;;;;1.95;1.50;;;;;;;28.02;29.10;99582.34;2619405;54;20046;-63
2022/07/09 14:45:33;;;;;;;2.15;1.55;;;;;;;28.01;28.95;99575.28;2619426;54;20048;-63
2022/07/09 14:48:03;;;;;;;5.15;1.00;;;;;;;27.83;29.36;99576.03;2621079;47;20054;-66
2022/07/09 14:50:32;;;;;;;1.38;1.10;;;;;;;27.89;29.19;99567.53;2621281;54;20065;-65
2022/07/09 14:53:02;;;;;;;1.90;1.02;;;;;;;27.93;28.98;99567.78;2621751;54;20031;-63
2022/07/09 14:55:32;;;;;;;1.23;1.20;;;;;;;27.87;29.17;99564.28;2621635;54;20031;-63
2022/07/09 14:58:02;;;;;;;3.13;1.80;;;;;;;27.84;29.15;99564.03;2620521;54;20538;-63
2022/07/09 15:00:34;;;;;;;3.10;0.85;;;;;;;27.83;29.12;99552.38;2618078;47;20030;-63
2022/07/09 15:03:03;;;;;;;2.25;1.15;;;;;;;27.97;29.45;99557.94;2618903;54;20034;-62
2022/07/09 15:05:33;;;;;;;1.52;1.20;;;;;;;28.13;28.60;99550.44;2618145;54;20053;-63
2022/07/09 15:08:09;;;;;;;2.58;0.90;;;;;;;28.21;28.40;99548.94;2618916;54;20057;-65
2022/07/09 15:10:40;;;;;;;1.15;0.90;;;;;;;28.38;28.60;99546.59;2619097;54;20038;-63
2022/07/09 15:13:09;;;;;;;1.63;0.88;;;;;;;28.42;28.35;99546.84;2619084;54;20041;-67
2022/07/09 15:15:42;;;;;;;1.58;0.73;;;;;;;28.33;28.61;99547.47;2619147;54;20035;-63
2022/07/09 15:18:11;;;;;;;0.88;0.88;;;;;;;28.36;28.61;99537.91;2618622;47;20034;-63
2022/07/09 15:20:41;;;;;;;1.67;0.90;;;;;;;28.22;28.27;99537.00;2618985;54;20086;-64
2022/07/09 15:23:11;;;;;;;1.88;0.90;;;;;;;28.15;28.91;99534.63;2618720;54;20034;-66
2022/07/09 15:25:40;;;;;;;2.40;2.20;;;;;;;28.39;28.63;99523.75;2618332;47;20029;-65
2022/07/09 15:28:12;;;;;;;2.53;2.05;;;;;;;28.22;28.92;99529.66;2618866;54;20030;-65
2022/07/09 15:30:51;;;;;;;2.30;1.02;;;;;;;27.98;28.88;99520.72;2620519;54;20042;-64
2022/07/09 15:33:22;;;;;;;1.20;1.10;;;;;;;27.78;29.17;99530.72;2619215;48;20058;-63
2022/07/09 15:35:51;;;;;;;2.60;1.75;;;;;;;27.57;29.10;99524.66;2618682;54;20034;-66
2022/07/09 15:38:21;;;;;;;1.90;1.30;;;;;;;27.43;29.44;99520.97;2618415;47;20037;-65